Terminal Aerodrome Forecast
Issued by NWS

Home | Current Version | Previous Version | Text Only | Print | Product List | Glossary On
Versions: 1 2 3 4 5 6 7 8 9 10 11 12 13 14 15 16 17 18 19 20 21 22 23 24
000
FTUS43 KSGF 201136
TAFJLN
TAF
KJLN 201136Z 2012/2112 14012KT 6SM -SHRA VCTS SCT035CB OVC080
      WS020/17045KT
     FM201600 16014G26KT P6SM VCSH SCT030 OVC080
     FM202000 20012G20KT 6SM -SHRA SCT035 OVC060
     FM210000 20010KT P6SM BKN100
     FM210600 23005KT 5SM BR SCT025 BKN060
     FM210900 28005KT 5SM BR BKN025=

USA.gov is the U.S. government's official web portal to all federal, state and local government web resources and services.